الصفحة الرئيسية
METAR-TAF:

METAR-TAF

مطار :

لواندا, أنغولا

دائرة عرض: 08-51S, خط طول: 013-14E, ارتفاع: 74 متر

مراقبة الطقس الحالي

تاريخ ووقت الإصدار 27 دقيقة قبل الساعة 21:00UTC
ريح 7 عقدة من الجنوب
درجة الحرارة 22°درجة مئوية
الرطوبة 88%
ضغط 1015 hPa
الرؤية 10 كم أو أكثر
غيوم قليلة على ارتفاع 2000 قدم

METAR: FNLU 052100Z 17007KT 9999 FEW020 22/20 Q1015 NOSIG

زمن: 22:27 (21:27 UTC)

توقعات

تاريخ ووقت الإصدار 4ساعات و 27 دقيقة قبل الساعة 17:00UTC
التوقعات صالحة من05 الساعة 18 UTC إلى 06 الساعة 24 UTC
ريح 8 عقدة من الجنوب الغربي
الرؤية: 9000 متر
غيوم قليلة على ارتفاع 2000 قدم
أصبح
من 05 الساعة 19 UTC إلى 05 الساعة 21 UTC
ريح 5 عقدة من الجنوب
مؤقت
من 06 الساعة 03 UTC إلى 06 الساعة 07 UTC
ريح 3 عقدةمن اتجاهات متغيرة
الرؤية: 5000 متر
غيوم مفككة على ارتفاع 2000 قدم
غشاء
أصبح
من 06 الساعة 10 UTC إلى 06 الساعة 12 UTC
ريح 10 عقدة من الغرب
الرؤية 10 كم أو أكثر

TAF: FNLU 051700Z 0518/0624 23008KT 9000 FEW020 BECMG 0519/0521 17005KT TEMPO 0603/0607 VRB03KT 5000 BR BKN020 BECMG 0610/0612 26010KT 9999

أرصاد الطقس والتوقعات من أكثر من 4000 مطار (تقارير الطقس للمطار METAR والتنبؤ بالطقس بالمطارTAF).

المحطات المتاحة هي النقط الصفراء والحمراء على الخريطة.

حرك المؤشر فوق النقطة لمعرفة اسم المحطة.

ثم انقر لمعرفة أرصاد وتوقعات الطقس.

لتغيير الخارطة: اضغط على الأزرار الخضراء مع رمز الصليب الأسود للتكبير. على الزر الأخضر مع شرطة للتصغير، أو على الأسهم الخضراء للخرائط المجاورة.


METAR-TAF: